Terminal Aerodrome Forecast
Issued by NWS

Home | Current Version | Previous Version | Text Only | Print | Product List | Glossary On
Versions: 1 2 3 4 5 6 7 8 9 10 11 12 13 14
000
FTUS43 KMQT 290500
TAFIWD
TAF
KIWD 290538Z 2906/3006 23005KT P6SM SCT080
     FM290900 28005KT P6SM VCSH SCT030 BKN060
      TEMPO 2909/2913 3SM BR SCT005
     FM300100 33005KT P6SM SCT060
      AMD NOT SKED=

USA.gov is the U.S. government's official web portal to all federal, state and local government web resources and services.